Accueil
METAR-TAF:

METAR-TAF

Aéroports :

Bahreïn, Bahreïn

Aéroport international de Bahreïn

latitude: 26-16N, longitude: 050-39E, altitude: 2 m

Observation

Le bulletin a été fait il y a 15 minutes, à 01:30 UTC
Vent 10 kt de ouest/nord-ouest
Température 21°C
Humidité 69%
Pression 1021 hPa
Visibilité 10 km ou plus
Quelques nuages à une hauteur de 2500 ft

METAR: OBBI 250130Z 30010KT 9999 FEW025 21/15 Q1021 NOSIG

Heure: 04:45 (01:45 UTC)

Prévision

Le bulletin a été fait il y a 2 heures et 45 minutes, à 23:00 UTC
Prévision valable du 25 à 00 UTC au 26 à 06 UTC
Vent 12 kt de nord/nord-ouest
Visibilité 10 km ou plus
Quelques nuages à une hauteur de 3000 ft
Evoluant progressivement
du 25 à 03 UTC au 25 à 05 UTC
Vent 15 kt de nord/nord-ouest avec des rafales jusqu'à 25 kt

TAF: OBBI 242300Z 2500/2606 34012KT 9999 FEW030 BECMG 2503/2505 33015G25KT

Observations et prévisions météorologiques de plus de 4000 aéroports (messages METAR et TAF).

Les stations disponibles sont représentées par des disques jaunes et rouges sur la carte.

Passer la souris dessus pour voir le nom de la station.

Cliquer dessus pour voir les observations et prévisions météorologiques.

Pour changer de carte: cliquez sur les boutons verts avec une croix noire pour zoomer, sur le bouton vert avec un tiret pour effectuer un zoom arrière, ou sur les flèches vertes pour les cartes adjacentes.


METAR-TAF: